sensor_id;sensor_type;location;lat;lon;timestamp;pressure;altitude;pressure_sealevel;temperature;humidity
38022;BME280;23832;43.216;27.946;2023-05-21T00:00:04;100495.03;;;21.27;54.05
38022;BME280;23832;43.216;27.946;2023-05-21T00:02:11;100498.19;;;21.41;53.76
38022;BME280;23832;43.216;27.946;2023-05-21T00:04:14;100505.97;;;21.42;53.73
38022;BME280;23832;43.216;27.946;2023-05-21T00:06:16;100500.00;;;21.79;52.61
38022;BME280;23832;43.216;27.946;2023-05-21T00:08:20;100491.06;;;22.17;51.61
38022;BME280;23832;43.216;27.946;2023-05-21T00:10:22;100492.91;;;22.12;51.30
38022;BME280;23832;43.216;27.946;2023-05-21T00:12:24;100494.72;;;21.84;52.34
38022;BME280;23832;43.216;27.946;2023-05-21T00:14:27;100492.66;;;21.69;52.65
38022;BME280;23832;43.216;27.946;2023-05-21T00:16:29;100488.84;;;22.09;51.47
38022;BME280;23832;43.216;27.946;2023-05-21T00:18:31;100484.09;;;22.16;51.49
38022;BME280;23832;43.216;27.946;2023-05-21T00:20:33;100488.13;;;22.19;51.26
38022;BME280;23832;43.216;27.946;2023-05-21T00:22:36;100486.50;;;22.45;50.54
38022;BME280;23832;43.216;27.946;2023-05-21T00:24:39;100482.47;;;22.15;51.05
38022;BME280;23832;43.216;27.946;2023-05-21T00:26:41;100490.81;;;22.19;51.08
38022;BME280;23832;43.216;27.946;2023-05-21T00:28:43;100485.28;;;22.03;51.38
38022;BME280;23832;43.216;27.946;2023-05-21T00:30:46;100489.44;;;22.43;50.51
38022;BME280;23832;43.216;27.946;2023-05-21T00:32:48;100483.28;;;22.16;51.14
38022;BME280;23832;43.216;27.946;2023-05-21T00:34:49;100483.94;;;22.06;51.81
38022;BME280;23832;43.216;27.946;2023-05-21T00:36:51;100491.72;;;22.02;51.52
38022;BME280;23832;43.216;27.946;2023-05-21T00:38:54;100481.78;;;21.81;52.06
38022;BME280;23832;43.216;27.946;2023-05-21T00:40:56;100485.53;;;21.80;52.26
38022;BME280;23832;43.216;27.946;2023-05-21T00:43:00;100484.00;;;21.84;51.89
38022;BME280;23832;43.216;27.946;2023-05-21T00:45:02;100481.97;;;21.96;51.33
38022;BME280;23832;43.216;27.946;2023-05-21T00:47:05;100476.69;;;22.06;51.13
38022;BME280;23832;43.216;27.946;2023-05-21T00:49:08;100469.97;;;22.04;51.86
38022;BME280;23832;43.216;27.946;2023-05-21T00:51:09;100479.63;;;22.27;51.09
38022;BME280;23832;43.216;27.946;2023-05-21T00:53:11;100472.91;;;22.02;51.72
38022;BME280;23832;43.216;27.946;2023-05-21T00:55:14;100478.03;;;21.82;51.90
38022;BME280;23832;43.216;27.946;2023-05-21T00:57:16;100484.84;;;21.68;52.44
38022;BME280;23832;43.216;27.946;2023-05-21T00:59:20;100477.78;;;21.62;52.61
38022;BME280;23832;43.216;27.946;2023-05-21T01:01:22;100474.91;;;21.90;52.44
38022;BME280;23832;43.216;27.946;2023-05-21T01:03:27;100478.47;;;21.52;53.06
38022;BME280;23832;43.216;27.946;2023-05-21T01:05:29;100469.25;;;21.87;52.36
38022;BME280;23832;43.216;27.946;2023-05-21T01:07:31;100466.44;;;21.76;52.56
38022;BME280;23832;43.216;27.946;2023-05-21T01:09:35;100457.84;;;21.52;53.23
38022;BME280;23832;43.216;27.946;2023-05-21T01:11:37;100458.09;;;21.51;53.57
38022;BME280;23832;43.216;27.946;2023-05-21T01:13:40;100456.72;;;21.48;53.43
38022;BME280;23832;43.216;27.946;2023-05-21T01:15:43;100463.13;;;21.47;53.74
38022;BME280;23832;43.216;27.946;2023-05-21T01:17:45;100456.00;;;21.36;54.29
38022;BME280;23832;43.216;27.946;2023-05-21T01:19:49;100451.59;;;21.47;54.15
38022;BME280;23832;43.216;27.946;2023-05-21T01:21:55;100453.97;;;21.43;53.88
38022;BME280;23832;43.216;27.946;2023-05-21T01:23:59;100455.97;;;21.14;54.78
38022;BME280;23832;43.216;27.946;2023-05-21T01:26:01;100449.28;;;21.17;54.85
38022;BME280;23832;43.216;27.946;2023-05-21T01:28:03;100451.06;;;21.11;55.25
38022;BME280;23832;43.216;27.946;2023-05-21T01:30:05;100457.06;;;21.35;54.31
38022;BME280;23832;43.216;27.946;2023-05-21T01:32:10;100454.53;;;21.67;53.36
38022;BME280;23832;43.216;27.946;2023-05-21T01:34:14;100453.09;;;21.60;53.01
38022;BME280;23832;43.216;27.946;2023-05-21T01:36:17;100447.34;;;21.51;53.45
38022;BME280;23832;43.216;27.946;2023-05-21T01:38:23;100445.19;;;21.48;53.52
38022;BME280;23832;43.216;27.946;2023-05-21T01:40:30;100444.09;;;21.71;52.90
38022;BME280;23832;43.216;27.946;2023-05-21T01:42:35;100446.03;;;21.53;52.86
38022;BME280;23832;43.216;27.946;2023-05-21T01:44:37;100441.22;;;21.56;53.01
38022;BME280;23832;43.216;27.946;2023-05-21T01:46:40;100431.94;;;21.85;52.06
38022;BME280;23832;43.216;27.946;2023-05-21T01:48:42;100429.69;;;21.77;51.98
38022;BME280;23832;43.216;27.946;2023-05-21T01:50:44;100430.88;;;21.86;51.88
38022;BME280;23832;43.216;27.946;2023-05-21T01:52:47;100419.16;;;21.97;51.42
38022;BME280;23832;43.216;27.946;2023-05-21T01:54:49;100423.78;;;21.75;51.95
38022;BME280;23832;43.216;27.946;2023-05-21T01:56:55;100416.75;;;21.74;51.84
38022;BME280;23832;43.216;27.946;2023-05-21T01:58:56;100415.31;;;21.39;52.91
38022;BME280;23832;43.216;27.946;2023-05-21T02:00:59;100419.22;;;21.32;52.82
38022;BME280;23832;43.216;27.946;2023-05-21T02:03:01;100409.84;;;21.12;53.69
38022;BME280;23832;43.216;27.946;2023-05-21T02:05:04;100407.69;;;21.31;53.08
38022;BME280;23832;43.216;27.946;2023-05-21T02:07:06;100407.97;;;21.13;53.66
38022;BME280;23832;43.216;27.946;2023-05-21T02:09:09;100407.09;;;20.90;54.20
38022;BME280;23832;43.216;27.946;2023-05-21T02:11:11;100408.72;;;20.91;54.33
38022;BME280;23832;43.216;27.946;2023-05-21T02:13:15;100409.72;;;21.24;53.29
38022;BME280;23832;43.216;27.946;2023-05-21T02:15:20;100410.94;;;20.94;53.95
38022;BME280;23832;43.216;27.946;2023-05-21T02:17:24;100408.72;;;20.91;53.50
38022;BME280;23832;43.216;27.946;2023-05-21T02:19:29;100407.97;;;21.13;53.16
38022;BME280;23832;43.216;27.946;2023-05-21T02:21:31;100402.47;;;21.41;52.56
38022;BME280;23832;43.216;27.946;2023-05-21T02:23:33;100417.75;;;21.41;52.14
38022;BME280;23832;43.216;27.946;2023-05-21T02:25:35;100406.69;;;21.37;51.87
38022;BME280;23832;43.216;27.946;2023-05-21T02:27:37;100403.88;;;21.27;52.03
38022;BME280;23832;43.216;27.946;2023-05-21T02:29:41;100404.81;;;21.38;51.51
38022;BME280;23832;43.216;27.946;2023-05-21T02:31:43;100399.44;;;21.38;51.39
38022;BME280;23832;43.216;27.946;2023-05-21T02:33:45;100400.41;;;21.48;51.02
38022;BME280;23832;43.216;27.946;2023-05-21T02:35:47;100402.69;;;21.62;50.53
38022;BME280;23832;43.216;27.946;2023-05-21T02:37:48;100398.72;;;21.42;50.90
38022;BME280;23832;43.216;27.946;2023-05-21T02:39:50;100391.91;;;21.35;51.13
38022;BME280;23832;43.216;27.946;2023-05-21T02:41:52;100393.78;;;20.95;52.02
38022;BME280;23832;43.216;27.946;2023-05-21T02:43:54;100396.53;;;21.01;52.01
38022;BME280;23832;43.216;27.946;2023-05-21T02:45:57;100394.19;;;21.04;52.22
38022;BME280;23832;43.216;27.946;2023-05-21T02:47:59;100394.63;;;20.79;52.47
38022;BME280;23832;43.216;27.946;2023-05-21T02:50:01;100403.97;;;20.60;53.03
38022;BME280;23832;43.216;27.946;2023-05-21T02:52:03;100398.13;;;20.80;52.88
38022;BME280;23832;43.216;27.946;2023-05-21T02:54:05;100394.84;;;20.94;52.31
38022;BME280;23832;43.216;27.946;2023-05-21T02:56:07;100404.97;;;20.92;52.57
38022;BME280;23832;43.216;27.946;2023-05-21T02:58:08;100398.44;;;20.83;52.73
38022;BME280;23832;43.216;27.946;2023-05-21T03:00:13;100397.38;;;20.84;52.76
38022;BME280;23832;43.216;27.946;2023-05-21T03:02:16;100394.88;;;20.78;52.79
38022;BME280;23832;43.216;27.946;2023-05-21T03:04:18;100397.19;;;20.91;52.23
38022;BME280;23832;43.216;27.946;2023-05-21T03:06:21;100386.34;;;20.81;52.53
38022;BME280;23832;43.216;27.946;2023-05-21T03:08:22;100395.72;;;21.00;52.16
38022;BME280;23832;43.216;27.946;2023-05-21T03:10:25;100390.13;;;21.23;51.55
38022;BME280;23832;43.216;27.946;2023-05-21T03:12:27;100393.63;;;21.24;51.45
38022;BME280;23832;43.216;27.946;2023-05-21T03:14:29;100392.22;;;21.38;51.58
38022;BME280;23832;43.216;27.946;2023-05-21T03:16:31;100391.84;;;21.51;51.28
38022;BME280;23832;43.216;27.946;2023-05-21T03:18:35;100393.94;;;21.71;50.77
38022;BME280;23832;43.216;27.946;2023-05-21T03:20:37;100396.94;;;21.75;50.67
38022;BME280;23832;43.216;27.946;2023-05-21T03:22:42;100396.03;;;21.42;51.44
38022;BME280;23832;43.216;27.946;2023-05-21T03:24:44;100396.28;;;21.41;51.26
38022;BME280;23832;43.216;27.946;2023-05-21T03:26:46;100397.97;;;21.08;51.53
38022;BME280;23832;43.216;27.946;2023-05-21T03:28:49;100394.41;;;21.03;52.14
38022;BME280;23832;43.216;27.946;2023-05-21T03:30:51;100401.28;;;21.32;51.65
38022;BME280;23832;43.216;27.946;2023-05-21T03:32:53;100403.63;;;21.50;51.36
38022;BME280;23832;43.216;27.946;2023-05-21T03:34:56;100401.34;;;21.20;51.63
38022;BME280;23832;43.216;27.946;2023-05-21T03:36:58;100403.94;;;21.54;50.67
38022;BME280;23832;43.216;27.946;2023-05-21T03:39:00;100403.00;;;21.92;50.02
38022;BME280;23832;43.216;27.946;2023-05-21T03:41:03;100407.56;;;21.43;50.27
38022;BME280;23832;43.216;27.946;2023-05-21T03:43:05;100403.19;;;21.59;50.10
38022;BME280;23832;43.216;27.946;2023-05-21T03:45:07;100405.22;;;22.00;49.37
38022;BME280;23832;43.216;27.946;2023-05-21T03:47:09;100400.94;;;22.26;48.71
38022;BME280;23832;43.216;27.946;2023-05-21T03:49:12;100404.94;;;22.24;48.23
38022;BME280;23832;43.216;27.946;2023-05-21T03:51:16;100402.78;;;22.21;48.74
38022;BME280;23832;43.216;27.946;2023-05-21T03:53:19;100406.31;;;22.58;48.58
38022;BME280;23832;43.216;27.946;2023-05-21T03:55:21;100392.66;;;22.65;48.28
38022;BME280;23832;43.216;27.946;2023-05-21T03:57:23;100403.34;;;22.23;48.77
38022;BME280;23832;43.216;27.946;2023-05-21T03:59:25;100408.38;;;22.83;47.35
38022;BME280;23832;43.216;27.946;2023-05-21T04:01:27;100411.69;;;22.63;47.72
38022;BME280;23832;43.216;27.946;2023-05-21T04:03:28;100408.28;;;23.10;47.07
38022;BME280;23832;43.216;27.946;2023-05-21T04:05:31;100403.09;;;22.61;47.11
38022;BME280;23832;43.216;27.946;2023-05-21T04:07:35;100413.41;;;22.75;46.69
38022;BME280;23832;43.216;27.946;2023-05-21T04:09:37;100408.78;;;23.07;46.23
38022;BME280;23832;43.216;27.946;2023-05-21T04:11:39;100403.13;;;23.04;46.92
38022;BME280;23832;43.216;27.946;2023-05-21T04:13:41;100405.59;;;23.15;46.80
38022;BME280;23832;43.216;27.946;2023-05-21T04:15:43;100396.47;;;23.16;46.53
38022;BME280;23832;43.216;27.946;2023-05-21T04:17:46;100395.88;;;23.09;46.77
38022;BME280;23832;43.216;27.946;2023-05-21T04:19:49;100392.78;;;23.33;46.11
38022;BME280;23832;43.216;27.946;2023-05-21T04:21:51;100404.19;;;23.60;45.81
38022;BME280;23832;43.216;27.946;2023-05-21T04:23:54;100395.59;;;23.63;45.48
38022;BME280;23832;43.216;27.946;2023-05-21T04:25:56;100402.81;;;23.58;45.35
38022;BME280;23832;43.216;27.946;2023-05-21T04:27:58;100404.81;;;23.98;44.76
38022;BME280;23832;43.216;27.946;2023-05-21T04:30:00;100405.91;;;24.07;44.64
38022;BME280;23832;43.216;27.946;2023-05-21T04:32:03;100401.38;;;24.38;43.48
38022;BME280;23832;43.216;27.946;2023-05-21T04:34:05;100402.72;;;24.20;44.78
38022;BME280;23832;43.216;27.946;2023-05-21T04:36:07;100397.06;;;24.47;43.48
38022;BME280;23832;43.216;27.946;2023-05-21T04:38:10;100397.34;;;24.51;43.69
38022;BME280;23832;43.216;27.946;2023-05-21T04:40:14;100398.34;;;24.96;42.87
38022;BME280;23832;43.216;27.946;2023-05-21T04:42:17;100407.84;;;24.73;43.19
38022;BME280;23832;43.216;27.946;2023-05-21T04:44:23;100406.75;;;24.69;42.62
38022;BME280;23832;43.216;27.946;2023-05-21T04:46:24;100404.59;;;24.50;42.38
38022;BME280;23832;43.216;27.946;2023-05-21T04:48:26;100411.56;;;24.92;41.66
38022;BME280;23832;43.216;27.946;2023-05-21T04:50:28;100403.72;;;25.11;42.01
38022;BME280;23832;43.216;27.946;2023-05-21T04:52:30;100406.91;;;25.28;41.91
38022;BME280;23832;43.216;27.946;2023-05-21T04:54:33;100407.44;;;25.30;41.69
38022;BME280;23832;43.216;27.946;2023-05-21T04:56:39;100408.59;;;25.68;41.18
38022;BME280;23832;43.216;27.946;2023-05-21T04:58:41;100416.09;;;25.22;41.65
38022;BME280;23832;43.216;27.946;2023-05-21T05:00:43;100404.84;;;24.84;41.30
38022;BME280;23832;43.216;27.946;2023-05-21T05:02:45;100409.69;;;24.92;40.58
38022;BME280;23832;43.216;27.946;2023-05-21T05:04:47;100407.22;;;25.16;40.21
38022;BME280;23832;43.216;27.946;2023-05-21T05:06:49;100406.69;;;25.09;40.70
38022;BME280;23832;43.216;27.946;2023-05-21T05:08:51;100414.78;;;25.09;40.17
38022;BME280;23832;43.216;27.946;2023-05-21T05:10:53;100416.47;;;24.65;40.62
38022;BME280;23832;43.216;27.946;2023-05-21T05:12:57;100407.28;;;24.81;40.14
38022;BME280;23832;43.216;27.946;2023-05-21T05:14:59;100414.56;;;24.80;39.95
38022;BME280;23832;43.216;27.946;2023-05-21T05:17:01;100412.38;;;25.08;39.58
38022;BME280;23832;43.216;27.946;2023-05-21T05:19:02;100413.44;;;25.12;39.82
38022;BME280;23832;43.216;27.946;2023-05-21T05:21:04;100422.84;;;25.19;39.73
38022;BME280;23832;43.216;27.946;2023-05-21T05:23:08;100418.47;;;25.34;39.24
38022;BME280;23832;43.216;27.946;2023-05-21T05:25:10;100410.13;;;25.30;39.20
38022;BME280;23832;43.216;27.946;2023-05-21T05:27:12;100405.59;;;25.15;39.52
38022;BME280;23832;43.216;27.946;2023-05-21T05:29:15;100402.31;;;25.29;38.76
38022;BME280;23832;43.216;27.946;2023-05-21T05:31:16;100408.59;;;25.04;39.58
38022;BME280;23832;43.216;27.946;2023-05-21T05:33:18;100415.75;;;25.34;39.60
38022;BME280;23832;43.216;27.946;2023-05-21T05:35:20;100406.78;;;25.54;39.29
38022;BME280;23832;43.216;27.946;2023-05-21T05:37:21;100410.25;;;25.59;39.21
38022;BME280;23832;43.216;27.946;2023-05-21T05:39:23;100418.63;;;25.58;39.23
38022;BME280;23832;43.216;27.946;2023-05-21T05:41:26;100400.53;;;25.63;39.13
38022;BME280;23832;43.216;27.946;2023-05-21T05:43:28;100415.06;;;25.67;39.28
38022;BME280;23832;43.216;27.946;2023-05-21T05:45:31;100413.16;;;25.78;38.99
38022;BME280;23832;43.216;27.946;2023-05-21T05:47:33;100423.13;;;26.22;38.67
38022;BME280;23832;43.216;27.946;2023-05-21T05:49:34;100406.16;;;26.16;39.32
38022;BME280;23832;43.216;27.946;2023-05-21T05:51:36;100406.13;;;25.77;39.71
38022;BME280;23832;43.216;27.946;2023-05-21T05:53:38;100414.03;;;25.63;39.93
38022;BME280;23832;43.216;27.946;2023-05-21T05:55:40;100412.63;;;25.81;39.75
38022;BME280;23832;43.216;27.946;2023-05-21T05:57:42;100409.00;;;25.96;40.13
38022;BME280;23832;43.216;27.946;2023-05-21T05:59:44;100401.47;;;26.27;39.19
38022;BME280;23832;43.216;27.946;2023-05-21T06:01:48;100405.16;;;26.41;42.28
38022;BME280;23832;43.216;27.946;2023-05-21T06:03:50;100413.75;;;26.77;45.78
38022;BME280;23832;43.216;27.946;2023-05-21T06:05:52;100414.75;;;26.86;45.54
38022;BME280;23832;43.216;27.946;2023-05-21T06:07:54;100415.38;;;27.07;44.53
38022;BME280;23832;43.216;27.946;2023-05-21T06:09:56;100411.00;;;27.78;40.85
38022;BME280;23832;43.216;27.946;2023-05-21T06:11:58;100402.75;;;27.64;39.38
38022;BME280;23832;43.216;27.946;2023-05-21T06:14:00;100412.59;;;27.79;39.35
38022;BME280;23832;43.216;27.946;2023-05-21T06:16:02;100420.13;;;28.01;39.42
38022;BME280;23832;43.216;27.946;2023-05-21T06:18:05;100410.22;;;28.29;38.08
38022;BME280;23832;43.216;27.946;2023-05-21T06:20:08;100407.22;;;27.93;38.99
38022;BME280;23832;43.216;27.946;2023-05-21T06:22:10;100416.38;;;28.35;37.56
38022;BME280;23832;43.216;27.946;2023-05-21T06:24:12;100402.75;;;28.53;36.57
38022;BME280;23832;43.216;27.946;2023-05-21T06:26:13;100406.16;;;28.26;36.90
38022;BME280;23832;43.216;27.946;2023-05-21T06:28:18;100402.00;;;28.67;35.69
38022;BME280;23832;43.216;27.946;2023-05-21T06:30:19;100415.19;;;28.87;35.45
38022;BME280;23832;43.216;27.946;2023-05-21T06:32:22;100408.13;;;28.72;35.82
38022;BME280;23832;43.216;27.946;2023-05-21T06:34:26;100409.78;;;28.22;35.58
38022;BME280;23832;43.216;27.946;2023-05-21T06:36:28;100401.16;;;28.01;35.21
38022;BME280;23832;43.216;27.946;2023-05-21T06:38:31;100410.50;;;28.27;35.18
38022;BME280;23832;43.216;27.946;2023-05-21T06:40:33;100405.06;;;27.95;35.39
38022;BME280;23832;43.216;27.946;2023-05-21T06:42:35;100402.03;;;28.48;34.77
38022;BME280;23832;43.216;27.946;2023-05-21T06:44:37;100396.22;;;28.41;35.00
38022;BME280;23832;43.216;27.946;2023-05-21T06:46:39;100401.63;;;28.41;34.68
38022;BME280;23832;43.216;27.946;2023-05-21T06:48:41;100391.44;;;27.81;34.98
38022;BME280;23832;43.216;27.946;2023-05-21T06:50:44;100386.81;;;28.00;35.16
38022;BME280;23832;43.216;27.946;2023-05-21T06:52:46;100399.47;;;28.05;34.85
38022;BME280;23832;43.216;27.946;2023-05-21T06:54:48;100397.97;;;28.13;34.57
38022;BME280;23832;43.216;27.946;2023-05-21T06:56:50;100397.03;;;28.41;34.88
38022;BME280;23832;43.216;27.946;2023-05-21T06:58:52;100378.53;;;28.43;34.86
38022;BME280;23832;43.216;27.946;2023-05-21T07:00:55;100401.19;;;28.80;34.13
38022;BME280;23832;43.216;27.946;2023-05-21T07:02:57;100395.16;;;28.83;33.98
38022;BME280;23832;43.216;27.946;2023-05-21T07:04:59;100390.31;;;28.52;33.92
38022;BME280;23832;43.216;27.946;2023-05-21T07:07:02;100392.75;;;28.81;33.94
38022;BME280;23832;43.216;27.946;2023-05-21T07:09:05;100386.81;;;28.66;33.89
38022;BME280;23832;43.216;27.946;2023-05-21T07:11:07;100395.63;;;28.58;33.73
38022;BME280;23832;43.216;27.946;2023-05-21T07:13:09;100390.44;;;28.75;33.45
38022;BME280;23832;43.216;27.946;2023-05-21T07:15:11;100389.56;;;28.79;33.56
38022;BME280;23832;43.216;27.946;2023-05-21T07:17:13;100396.28;;;29.37;33.08
38022;BME280;23832;43.216;27.946;2023-05-21T07:19:14;100388.44;;;29.35;32.31
38022;BME280;23832;43.216;27.946;2023-05-21T07:21:16;100381.44;;;29.84;32.36
38022;BME280;23832;43.216;27.946;2023-05-21T07:23:20;100384.50;;;30.59;30.97
38022;BME280;23832;43.216;27.946;2023-05-21T07:25:22;100385.59;;;30.89;31.00
38022;BME280;23832;43.216;27.946;2023-05-21T07:27:24;100374.72;;;31.37;30.76
38022;BME280;23832;43.216;27.946;2023-05-21T07:29:26;100376.03;;;31.48;30.29
38022;BME280;23832;43.216;27.946;2023-05-21T07:31:28;100388.53;;;31.67;29.90
38022;BME280;23832;43.216;27.946;2023-05-21T07:33:30;100391.09;;;31.72;29.87
38022;BME280;23832;43.216;27.946;2023-05-21T07:35:32;100388.50;;;30.84;30.48
38022;BME280;23832;43.216;27.946;2023-05-21T07:37:34;100374.22;;;31.26;30.75
38022;BME280;23832;43.216;27.946;2023-05-21T07:39:37;100380.53;;;31.87;30.25
38022;BME280;23832;43.216;27.946;2023-05-21T07:41:39;100386.34;;;32.67;29.52
38022;BME280;23832;43.216;27.946;2023-05-21T07:43:41;100392.13;;;33.33;28.77
38022;BME280;23832;43.216;27.946;2023-05-21T07:45:43;100389.09;;;33.35;28.66
38022;BME280;23832;43.216;27.946;2023-05-21T07:47:45;100388.78;;;32.52;29.48
38022;BME280;23832;43.216;27.946;2023-05-21T07:49:48;100387.06;;;32.94;29.28
38022;BME280;23832;43.216;27.946;2023-05-21T07:51:50;100394.72;;;33.30;29.06
38022;BME280;23832;43.216;27.946;2023-05-21T07:53:52;100398.91;;;33.36;29.41
38022;BME280;23832;43.216;27.946;2023-05-21T07:55:55;100394.53;;;33.65;29.17
38022;BME280;23832;43.216;27.946;2023-05-21T07:57:58;100394.59;;;33.26;29.58
38022;BME280;23832;43.216;27.946;2023-05-21T08:00:00;100397.91;;;32.64;29.98
38022;BME280;23832;43.216;27.946;2023-05-21T08:02:04;100406.72;;;33.46;30.01
38022;BME280;23832;43.216;27.946;2023-05-21T08:04:06;100402.50;;;33.49;30.21
38022;BME280;23832;43.216;27.946;2023-05-21T08:06:07;100402.41;;;34.20;29.46
38022;BME280;23832;43.216;27.946;2023-05-21T08:08:09;100401.94;;;33.35;29.73
38022;BME280;23832;43.216;27.946;2023-05-21T08:10:12;100404.56;;;34.14;29.38
38022;BME280;23832;43.216;27.946;2023-05-21T08:12:16;100394.00;;;33.71;29.78
38022;BME280;23832;43.216;27.946;2023-05-21T08:14:18;100396.63;;;33.38;30.10
38022;BME280;23832;43.216;27.946;2023-05-21T08:16:20;100399.06;;;32.63;30.97
38022;BME280;23832;43.216;27.946;2023-05-21T08:18:22;100402.66;;;32.38;31.12
38022;BME280;23832;43.216;27.946;2023-05-21T08:20:24;100401.22;;;31.97;31.84
38022;BME280;23832;43.216;27.946;2023-05-21T08:22:26;100403.44;;;32.21;31.93
38022;BME280;23832;43.216;27.946;2023-05-21T08:24:28;100406.66;;;32.40;31.49
38022;BME280;23832;43.216;27.946;2023-05-21T08:26:30;100407.31;;;32.03;32.29
38022;BME280;23832;43.216;27.946;2023-05-21T08:28:36;100402.34;;;32.31;32.00
38022;BME280;23832;43.216;27.946;2023-05-21T08:30:38;100415.34;;;31.82;32.96
38022;BME280;23832;43.216;27.946;2023-05-21T08:32:40;100407.34;;;31.20;33.15
38022;BME280;23832;43.216;27.946;2023-05-21T08:34:42;100409.88;;;31.16;33.22
38022;BME280;23832;43.216;27.946;2023-05-21T08:36:44;100407.59;;;31.58;32.82
38022;BME280;23832;43.216;27.946;2023-05-21T08:38:47;100398.63;;;31.66;33.02
38022;BME280;23832;43.216;27.946;2023-05-21T08:40:49;100404.28;;;31.13;33.53
38022;BME280;23832;43.216;27.946;2023-05-21T08:42:51;100409.16;;;30.62;33.92
38022;BME280;23832;43.216;27.946;2023-05-21T08:44:55;100409.00;;;30.36;34.32
38022;BME280;23832;43.216;27.946;2023-05-21T08:47:00;100415.94;;;30.65;34.25
38022;BME280;23832;43.216;27.946;2023-05-21T08:49:03;100411.47;;;30.69;34.16
38022;BME280;23832;43.216;27.946;2023-05-21T08:51:04;100414.19;;;30.69;34.25
38022;BME280;23832;43.216;27.946;2023-05-21T08:53:06;100421.38;;;30.65;34.39
38022;BME280;23832;43.216;27.946;2023-05-21T08:55:09;100416.41;;;31.06;33.87
38022;BME280;23832;43.216;27.946;2023-05-21T08:57:11;100417.84;;;31.52;33.56
38022;BME280;23832;43.216;27.946;2023-05-21T08:59:14;100416.03;;;30.91;34.09
38022;BME280;23832;43.216;27.946;2023-05-21T09:01:19;100415.03;;;30.78;33.44
38022;BME280;23832;43.216;27.946;2023-05-21T09:03:22;100422.44;;;30.86;33.24
38022;BME280;23832;43.216;27.946;2023-05-21T09:05:24;100417.53;;;31.05;33.04
38022;BME280;23832;43.216;27.946;2023-05-21T09:07:26;100416.69;;;30.96;33.09
38022;BME280;23832;43.216;27.946;2023-05-21T09:09:32;100428.13;;;30.53;33.21
38022;BME280;23832;43.216;27.946;2023-05-21T09:11:35;100425.56;;;31.11;32.96
38022;BME280;23832;43.216;27.946;2023-05-21T09:13:37;100440.47;;;30.82;33.47
38022;BME280;23832;43.216;27.946;2023-05-21T09:15:39;100433.72;;;30.48;32.98
38022;BME280;23832;43.216;27.946;2023-05-21T09:17:42;100444.03;;;30.91;32.09
38022;BME280;23832;43.216;27.946;2023-05-21T09:20:06;100439.78;;;30.23;32.93
38022;BME280;23832;43.216;27.946;2023-05-21T09:22:10;100442.34;;;30.06;33.62
38022;BME280;23832;43.216;27.946;2023-05-21T09:24:11;100445.41;;;30.27;33.10
38022;BME280;23832;43.216;27.946;2023-05-21T09:26:14;100438.41;;;29.76;34.06
38022;BME280;23832;43.216;27.946;2023-05-21T09:28:16;100445.31;;;29.95;33.94
38022;BME280;23832;43.216;27.946;2023-05-21T09:30:18;100449.97;;;29.81;34.41
38022;BME280;23832;43.216;27.946;2023-05-21T09:32:20;100444.22;;;29.83;34.60
38022;BME280;23832;43.216;27.946;2023-05-21T09:34:24;100445.06;;;29.70;34.79
38022;BME280;23832;43.216;27.946;2023-05-21T09:36:26;100445.41;;;30.27;34.57
38022;BME280;23832;43.216;27.946;2023-05-21T09:38:29;100443.38;;;30.32;34.55
38022;BME280;23832;43.216;27.946;2023-05-21T09:40:34;100442.84;;;30.52;34.59
38022;BME280;23832;43.216;27.946;2023-05-21T09:42:37;100440.16;;;30.30;35.06
38022;BME280;23832;43.216;27.946;2023-05-21T09:44:41;100442.41;;;30.82;34.51
38022;BME280;23832;43.216;27.946;2023-05-21T09:46:43;100437.41;;;31.06;34.32
38022;BME280;23832;43.216;27.946;2023-05-21T09:48:45;100433.72;;;31.02;34.20
38022;BME280;23832;43.216;27.946;2023-05-21T09:50:49;100441.78;;;30.62;34.86
38022;BME280;23832;43.216;27.946;2023-05-21T09:52:52;100436.75;;;31.09;34.08
38022;BME280;23832;43.216;27.946;2023-05-21T09:54:54;100443.56;;;30.89;34.50
38022;BME280;23832;43.216;27.946;2023-05-21T09:56:56;100434.31;;;31.30;33.85
38022;BME280;23832;43.216;27.946;2023-05-21T09:59:00;100439.56;;;31.26;33.84
38022;BME280;23832;43.216;27.946;2023-05-21T10:01:03;100435.94;;;31.08;33.89
38022;BME280;23832;43.216;27.946;2023-05-21T10:03:07;100437.06;;;31.07;33.36
38022;BME280;23832;43.216;27.946;2023-05-21T10:05:10;100440.31;;;30.78;33.45
38022;BME280;23832;43.216;27.946;2023-05-21T10:07:14;100438.03;;;31.03;33.59
38022;BME280;23832;43.216;27.946;2023-05-21T10:09:17;100438.38;;;31.58;33.18
38022;BME280;23832;43.216;27.946;2023-05-21T10:11:20;100436.31;;;31.16;33.25
38022;BME280;23832;43.216;27.946;2023-05-21T10:13:23;100432.88;;;31.41;32.93
38022;BME280;23832;43.216;27.946;2023-05-21T10:15:26;100438.69;;;31.08;33.21
38022;BME280;23832;43.216;27.946;2023-05-21T10:17:28;100431.03;;;31.11;33.16
38022;BME280;23832;43.216;27.946;2023-05-21T10:19:30;100427.50;;;30.79;33.93
38022;BME280;23832;43.216;27.946;2023-05-21T10:21:35;100427.56;;;30.88;33.45
38022;BME280;23832;43.216;27.946;2023-05-21T10:23:41;100463.97;;;30.69;33.75
38022;BME280;23832;43.216;27.946;2023-05-21T10:25:44;100440.09;;;30.97;33.54
38022;BME280;23832;43.216;27.946;2023-05-21T10:27:46;100443.28;;;30.99;33.40
38022;BME280;23832;43.216;27.946;2023-05-21T10:29:48;100442.09;;;30.61;33.46
38022;BME280;23832;43.216;27.946;2023-05-21T10:31:51;100438.22;;;30.53;33.44